sensor_id;sensor_type;location;lat;lon;timestamp;P1;durP1;ratioP1;P2;durP2;ratioP2
64932;SDS011;51446;53.850;10.662;2024-03-02T00:01:48;40.57;;;18.20;;
64932;SDS011;51446;53.850;10.662;2024-03-02T00:04:13;34.60;;;17.80;;
64932;SDS011;51446;53.850;10.662;2024-03-02T00:06:39;34.93;;;17.87;;
64932;SDS011;51446;53.850;10.662;2024-03-02T00:09:04;37.07;;;17.97;;
64932;SDS011;51446;53.850;10.662;2024-03-02T00:11:29;36.20;;;17.43;;
64932;SDS011;51446;53.850;10.662;2024-03-02T00:13:54;38.97;;;17.60;;
64932;SDS011;51446;53.850;10.662;2024-03-02T00:16:20;38.42;;;18.45;;
64932;SDS011;51446;53.850;10.662;2024-03-02T00:18:45;36.17;;;18.55;;
64932;SDS011;51446;53.850;10.662;2024-03-02T00:21:11;36.97;;;18.90;;
64932;SDS011;51446;53.850;10.662;2024-03-02T00:23:38;31.60;;;17.48;;
64932;SDS011;51446;53.850;10.662;2024-03-02T00:26:03;34.57;;;17.97;;
64932;SDS011;51446;53.850;10.662;2024-03-02T00:28:35;39.63;;;18.08;;
64932;SDS011;51446;53.850;10.662;2024-03-02T00:31:02;32.40;;;17.75;;
64932;SDS011;51446;53.850;10.662;2024-03-02T00:33:38;40.05;;;18.33;;
64932;SDS011;51446;53.850;10.662;2024-03-02T00:36:08;39.25;;;16.73;;
64932;SDS011;51446;53.850;10.662;2024-03-02T00:38:40;42.95;;;18.60;;
64932;SDS011;51446;53.850;10.662;2024-03-02T00:41:11;41.30;;;20.77;;
64932;SDS011;51446;53.850;10.662;2024-03-02T00:43:54;40.70;;;19.25;;
64932;SDS011;51446;53.850;10.662;2024-03-02T00:46:23;38.42;;;19.27;;
64932;SDS011;51446;53.850;10.662;2024-03-02T00:51:21;40.30;;;18.38;;
64932;SDS011;51446;53.850;10.662;2024-03-02T00:53:51;36.47;;;19.50;;
64932;SDS011;51446;53.850;10.662;2024-03-02T00:56:18;39.33;;;18.65;;
64932;SDS011;51446;53.850;10.662;2024-03-02T00:58:43;38.50;;;19.63;;
64932;SDS011;51446;53.850;10.662;2024-03-02T01:01:09;36.08;;;18.02;;
64932;SDS011;51446;53.850;10.662;2024-03-02T01:03:34;39.20;;;19.33;;
64932;SDS011;51446;53.850;10.662;2024-03-02T01:06:00;38.00;;;19.00;;
64932;SDS011;51446;53.850;10.662;2024-03-02T01:08:25;38.13;;;19.13;;
64932;SDS011;51446;53.850;10.662;2024-03-02T01:10:51;36.38;;;18.98;;
64932;SDS011;51446;53.850;10.662;2024-03-02T01:13:16;35.67;;;18.43;;
64932;SDS011;51446;53.850;10.662;2024-03-02T01:15:42;34.67;;;19.07;;
64932;SDS011;51446;53.850;10.662;2024-03-02T01:18:07;36.90;;;18.43;;
64932;SDS011;51446;53.850;10.662;2024-03-02T01:20:32;38.00;;;19.77;;
64932;SDS011;51446;53.850;10.662;2024-03-02T01:22:58;37.20;;;18.80;;
64932;SDS011;51446;53.850;10.662;2024-03-02T01:25:23;43.33;;;20.40;;
64932;SDS011;51446;53.850;10.662;2024-03-02T01:27:48;38.58;;;19.50;;
64932;SDS011;51446;53.850;10.662;2024-03-02T01:30:14;37.70;;;19.15;;
64932;SDS011;51446;53.850;10.662;2024-03-02T01:32:39;42.50;;;19.70;;
64932;SDS011;51446;53.850;10.662;2024-03-02T01:35:05;39.23;;;18.93;;
64932;SDS011;51446;53.850;10.662;2024-03-02T01:37:31;45.67;;;20.83;;
64932;SDS011;51446;53.850;10.662;2024-03-02T01:39:57;43.05;;;19.15;;
64932;SDS011;51446;53.850;10.662;2024-03-02T01:42:23;41.97;;;21.23;;
64932;SDS011;51446;53.850;10.662;2024-03-02T01:44:48;41.70;;;20.40;;
64932;SDS011;51446;53.850;10.662;2024-03-02T01:47:13;41.37;;;19.90;;
64932;SDS011;51446;53.850;10.662;2024-03-02T01:49:38;41.27;;;19.20;;
64932;SDS011;51446;53.850;10.662;2024-03-02T01:52:05;43.78;;;21.02;;
64932;SDS011;51446;53.850;10.662;2024-03-02T01:54:31;43.75;;;21.15;;
64932;SDS011;51446;53.850;10.662;2024-03-02T01:56:56;37.80;;;18.67;;
64932;SDS011;51446;53.850;10.662;2024-03-02T01:59:22;39.63;;;20.17;;
64932;SDS011;51446;53.850;10.662;2024-03-02T02:01:47;44.83;;;21.03;;
64932;SDS011;51446;53.850;10.662;2024-03-02T02:04:12;42.53;;;18.60;;
64932;SDS011;51446;53.850;10.662;2024-03-02T02:06:38;44.58;;;19.52;;
64932;SDS011;51446;53.850;10.662;2024-03-02T02:09:04;38.77;;;19.57;;
64932;SDS011;51446;53.850;10.662;2024-03-02T02:11:29;41.30;;;20.40;;
64932;SDS011;51446;53.850;10.662;2024-03-02T02:13:54;39.97;;;20.37;;
64932;SDS011;51446;53.850;10.662;2024-03-02T02:16:20;41.03;;;20.05;;
64932;SDS011;51446;53.850;10.662;2024-03-02T02:18:46;45.20;;;20.43;;
64932;SDS011;51446;53.850;10.662;2024-03-02T02:21:11;41.03;;;18.80;;
64932;SDS011;51446;53.850;10.662;2024-03-02T02:23:36;40.47;;;19.90;;
64932;SDS011;51446;53.850;10.662;2024-03-02T02:26:01;39.87;;;19.87;;
64932;SDS011;51446;53.850;10.662;2024-03-02T02:28:27;37.45;;;19.15;;
64932;SDS011;51446;53.850;10.662;2024-03-02T02:30:54;45.23;;;19.77;;
64932;SDS011;51446;53.850;10.662;2024-03-02T02:33:21;37.65;;;19.23;;
64932;SDS011;51446;53.850;10.662;2024-03-02T02:35:46;44.00;;;19.80;;
64932;SDS011;51446;53.850;10.662;2024-03-02T02:38:11;36.83;;;18.80;;
64932;SDS011;51446;53.850;10.662;2024-03-02T02:40:36;37.10;;;19.80;;
64932;SDS011;51446;53.850;10.662;2024-03-02T02:43:02;44.27;;;21.87;;
64932;SDS011;51446;53.850;10.662;2024-03-02T02:45:27;39.20;;;19.50;;
64932;SDS011;51446;53.850;10.662;2024-03-02T02:47:52;40.93;;;20.40;;
64932;SDS011;51446;53.850;10.662;2024-03-02T02:50:18;41.10;;;20.03;;
64932;SDS011;51446;53.850;10.662;2024-03-02T02:52:43;42.83;;;21.07;;
64932;SDS011;51446;53.850;10.662;2024-03-02T02:55:09;36.43;;;20.07;;
64932;SDS011;51446;53.850;10.662;2024-03-02T02:57:36;39.40;;;20.10;;
64932;SDS011;51446;53.850;10.662;2024-03-02T03:00:06;41.17;;;20.20;;
64932;SDS011;51446;53.850;10.662;2024-03-02T03:02:38;43.42;;;20.25;;
64932;SDS011;51446;53.850;10.662;2024-03-02T03:05:08;41.40;;;21.10;;
64932;SDS011;51446;53.850;10.662;2024-03-02T03:07:36;39.50;;;20.37;;
64932;SDS011;51446;53.850;10.662;2024-03-02T03:10:03;40.88;;;20.63;;
64932;SDS011;51446;53.850;10.662;2024-03-02T03:12:29;43.65;;;20.92;;
64932;SDS011;51446;53.850;10.662;2024-03-02T03:14:55;40.30;;;20.20;;
64932;SDS011;51446;53.850;10.662;2024-03-02T03:17:23;43.70;;;21.07;;
64932;SDS011;51446;53.850;10.662;2024-03-02T03:19:49;45.20;;;20.85;;
64932;SDS011;51446;53.850;10.662;2024-03-02T03:22:15;39.47;;;20.77;;
64932;SDS011;51446;53.850;10.662;2024-03-02T03:24:40;44.20;;;21.07;;
64932;SDS011;51446;53.850;10.662;2024-03-02T03:27:05;42.20;;;18.80;;
64932;SDS011;51446;53.850;10.662;2024-03-02T03:29:31;40.43;;;19.83;;
64932;SDS011;51446;53.850;10.662;2024-03-02T03:31:56;46.00;;;20.40;;
64932;SDS011;51446;53.850;10.662;2024-03-02T03:34:21;41.53;;;20.83;;
64932;SDS011;51446;53.850;10.662;2024-03-02T03:36:47;40.73;;;20.30;;
64932;SDS011;51446;53.850;10.662;2024-03-02T03:39:12;39.53;;;20.13;;
64932;SDS011;51446;53.850;10.662;2024-03-02T03:41:37;39.03;;;21.00;;
64932;SDS011;51446;53.850;10.662;2024-03-02T03:44:02;44.63;;;21.67;;
64932;SDS011;51446;53.850;10.662;2024-03-02T03:46:28;44.10;;;20.55;;
64932;SDS011;51446;53.850;10.662;2024-03-02T03:48:54;38.67;;;19.97;;
64932;SDS011;51446;53.850;10.662;2024-03-02T03:51:20;47.30;;;22.20;;
64932;SDS011;51446;53.850;10.662;2024-03-02T03:53:47;42.65;;;20.95;;
64932;SDS011;51446;53.850;10.662;2024-03-02T03:56:12;40.90;;;20.93;;
64932;SDS011;51446;53.850;10.662;2024-03-02T03:58:38;43.80;;;21.70;;
64932;SDS011;51446;53.850;10.662;2024-03-02T04:01:03;44.20;;;21.60;;
64932;SDS011;51446;53.850;10.662;2024-03-02T04:03:28;42.00;;;20.70;;
64932;SDS011;51446;53.850;10.662;2024-03-02T04:05:54;42.23;;;21.50;;
64932;SDS011;51446;53.850;10.662;2024-03-02T04:08:19;47.33;;;22.42;;
64932;SDS011;51446;53.850;10.662;2024-03-02T04:10:44;46.28;;;22.10;;
64932;SDS011;51446;53.850;10.662;2024-03-02T04:13:09;43.88;;;21.55;;
64932;SDS011;51446;53.850;10.662;2024-03-02T04:15:35;43.05;;;21.60;;
64932;SDS011;51446;53.850;10.662;2024-03-02T04:18:00;45.40;;;21.10;;
64932;SDS011;51446;53.850;10.662;2024-03-02T04:20:25;42.13;;;21.20;;
64932;SDS011;51446;53.850;10.662;2024-03-02T04:22:51;51.83;;;20.98;;
64932;SDS011;51446;53.850;10.662;2024-03-02T04:25:16;46.78;;;22.45;;
64932;SDS011;51446;53.850;10.662;2024-03-02T04:27:41;45.17;;;22.17;;
64932;SDS011;51446;53.850;10.662;2024-03-02T04:30:06;45.33;;;21.83;;
64932;SDS011;51446;53.850;10.662;2024-03-02T04:32:32;43.90;;;21.30;;
64932;SDS011;51446;53.850;10.662;2024-03-02T04:34:57;51.07;;;23.10;;
64932;SDS011;51446;53.850;10.662;2024-03-02T04:37:23;45.50;;;22.60;;
64932;SDS011;51446;53.850;10.662;2024-03-02T04:39:48;48.03;;;22.83;;
64932;SDS011;51446;53.850;10.662;2024-03-02T04:42:13;48.20;;;21.60;;
64932;SDS011;51446;53.850;10.662;2024-03-02T04:44:39;41.53;;;21.53;;
64932;SDS011;51446;53.850;10.662;2024-03-02T04:47:04;48.00;;;23.33;;
64932;SDS011;51446;53.850;10.662;2024-03-02T04:49:30;47.33;;;21.23;;
64932;SDS011;51446;53.850;10.662;2024-03-02T04:51:55;45.70;;;22.07;;
64932;SDS011;51446;53.850;10.662;2024-03-02T04:54:21;46.72;;;21.17;;
64932;SDS011;51446;53.850;10.662;2024-03-02T04:56:47;44.20;;;21.93;;
64932;SDS011;51446;53.850;10.662;2024-03-02T04:59:18;49.80;;;21.45;;
64932;SDS011;51446;53.850;10.662;2024-03-02T05:01:43;41.30;;;19.80;;
64932;SDS011;51446;53.850;10.662;2024-03-02T05:04:09;42.60;;;21.30;;
64932;SDS011;51446;53.850;10.662;2024-03-02T05:06:36;49.33;;;21.58;;
64932;SDS011;51446;53.850;10.662;2024-03-02T05:09:03;44.20;;;21.23;;
64932;SDS011;51446;53.850;10.662;2024-03-02T05:11:28;44.63;;;21.43;;
64932;SDS011;51446;53.850;10.662;2024-03-02T05:14:02;44.60;;;21.00;;
64932;SDS011;51446;53.850;10.662;2024-03-02T05:16:28;42.80;;;21.13;;
64932;SDS011;51446;53.850;10.662;2024-03-02T05:18:53;43.42;;;21.52;;
64932;SDS011;51446;53.850;10.662;2024-03-02T05:21:18;41.67;;;20.93;;
64932;SDS011;51446;53.850;10.662;2024-03-02T05:23:44;45.03;;;21.23;;
64932;SDS011;51446;53.850;10.662;2024-03-02T05:26:09;47.63;;;21.37;;
64932;SDS011;51446;53.850;10.662;2024-03-02T05:28:37;42.40;;;20.67;;
64932;SDS011;51446;53.850;10.662;2024-03-02T05:31:03;46.03;;;21.85;;
64932;SDS011;51446;53.850;10.662;2024-03-02T05:33:28;44.30;;;22.30;;
64932;SDS011;51446;53.850;10.662;2024-03-02T05:35:56;42.95;;;22.10;;
64932;SDS011;51446;53.850;10.662;2024-03-02T05:38:21;45.40;;;21.70;;
64932;SDS011;51446;53.850;10.662;2024-03-02T05:40:46;43.73;;;21.73;;
64932;SDS011;51446;53.850;10.662;2024-03-02T05:43:12;43.47;;;21.13;;
64932;SDS011;51446;53.850;10.662;2024-03-02T05:45:37;44.83;;;21.17;;
64932;SDS011;51446;53.850;10.662;2024-03-02T05:48:02;43.87;;;21.53;;
64932;SDS011;51446;53.850;10.662;2024-03-02T05:50:28;46.73;;;22.30;;
64932;SDS011;51446;53.850;10.662;2024-03-02T05:52:53;45.37;;;22.17;;
64932;SDS011;51446;53.850;10.662;2024-03-02T05:55:18;43.90;;;21.23;;
64932;SDS011;51446;53.850;10.662;2024-03-02T05:57:44;50.95;;;21.50;;
64932;SDS011;51446;53.850;10.662;2024-03-02T06:00:09;41.77;;;21.07;;
64932;SDS011;51446;53.850;10.662;2024-03-02T06:02:38;48.03;;;21.30;;
64932;SDS011;51446;53.850;10.662;2024-03-02T06:05:04;45.55;;;22.35;;
64932;SDS011;51446;53.850;10.662;2024-03-02T06:07:29;48.23;;;22.70;;
64932;SDS011;51446;53.850;10.662;2024-03-02T06:09:55;40.65;;;21.92;;
64932;SDS011;51446;53.850;10.662;2024-03-02T06:12:20;41.60;;;21.50;;
64932;SDS011;51446;53.850;10.662;2024-03-02T06:14:45;46.50;;;21.17;;
64932;SDS011;51446;53.850;10.662;2024-03-02T06:17:11;49.13;;;22.70;;
64932;SDS011;51446;53.850;10.662;2024-03-02T06:19:36;49.00;;;22.97;;
64932;SDS011;51446;53.850;10.662;2024-03-02T06:22:01;46.43;;;22.23;;
64932;SDS011;51446;53.850;10.662;2024-03-02T06:24:26;49.90;;;23.10;;
64932;SDS011;51446;53.850;10.662;2024-03-02T06:26:52;51.90;;;23.80;;
64932;SDS011;51446;53.850;10.662;2024-03-02T06:29:17;47.90;;;22.77;;
64932;SDS011;51446;53.850;10.662;2024-03-02T06:31:42;49.00;;;23.27;;
64932;SDS011;51446;53.850;10.662;2024-03-02T06:34:08;47.30;;;22.57;;
64932;SDS011;51446;53.850;10.662;2024-03-02T06:36:33;45.38;;;22.30;;
64932;SDS011;51446;53.850;10.662;2024-03-02T06:38:59;45.95;;;22.27;;
64932;SDS011;51446;53.850;10.662;2024-03-02T06:41:24;49.13;;;22.57;;
64932;SDS011;51446;53.850;10.662;2024-03-02T06:43:49;47.70;;;22.07;;
64932;SDS011;51446;53.850;10.662;2024-03-02T06:46:14;45.17;;;22.63;;
64932;SDS011;51446;53.850;10.662;2024-03-02T06:48:40;48.57;;;22.83;;
64932;SDS011;51446;53.850;10.662;2024-03-02T06:51:05;52.47;;;23.17;;
64932;SDS011;51446;53.850;10.662;2024-03-02T06:53:30;42.47;;;21.93;;
64932;SDS011;51446;53.850;10.662;2024-03-02T06:55:58;44.25;;;22.63;;
64932;SDS011;51446;53.850;10.662;2024-03-02T06:58:23;42.10;;;20.97;;
64932;SDS011;51446;53.850;10.662;2024-03-02T07:00:49;44.97;;;22.73;;
64932;SDS011;51446;53.850;10.662;2024-03-02T07:03:14;50.43;;;23.67;;
64932;SDS011;51446;53.850;10.662;2024-03-02T07:05:39;52.07;;;22.80;;
64932;SDS011;51446;53.850;10.662;2024-03-02T07:08:04;50.00;;;23.23;;
64932;SDS011;51446;53.850;10.662;2024-03-02T07:10:30;49.92;;;23.52;;
64932;SDS011;51446;53.850;10.662;2024-03-02T07:12:56;48.60;;;22.50;;
64932;SDS011;51446;53.850;10.662;2024-03-02T07:15:21;46.97;;;22.43;;
64932;SDS011;51446;53.850;10.662;2024-03-02T07:17:55;49.30;;;22.52;;
64932;SDS011;51446;53.850;10.662;2024-03-02T07:20:20;46.83;;;23.03;;
64932;SDS011;51446;53.850;10.662;2024-03-02T07:22:45;50.27;;;23.47;;
64932;SDS011;51446;53.850;10.662;2024-03-02T07:25:11;48.08;;;22.58;;
64932;SDS011;51446;53.850;10.662;2024-03-02T07:27:37;45.57;;;21.83;;
64932;SDS011;51446;53.850;10.662;2024-03-02T07:30:03;48.28;;;22.52;;
64932;SDS011;51446;53.850;10.662;2024-03-02T07:32:28;42.87;;;22.37;;
64932;SDS011;51446;53.850;10.662;2024-03-02T07:34:54;47.47;;;22.55;;
64932;SDS011;51446;53.850;10.662;2024-03-02T07:37:20;46.10;;;22.63;;
64932;SDS011;51446;53.850;10.662;2024-03-02T07:39:46;44.42;;;21.70;;
64932;SDS011;51446;53.850;10.662;2024-03-02T07:42:11;47.07;;;22.70;;
64932;SDS011;51446;53.850;10.662;2024-03-02T07:44:36;43.43;;;22.30;;
64932;SDS011;51446;53.850;10.662;2024-03-02T07:47:03;47.43;;;22.50;;
64932;SDS011;51446;53.850;10.662;2024-03-02T07:49:28;45.67;;;22.02;;
64932;SDS011;51446;53.850;10.662;2024-03-02T07:51:54;47.93;;;22.73;;
64932;SDS011;51446;53.850;10.662;2024-03-02T07:54:19;46.90;;;22.50;;
64932;SDS011;51446;53.850;10.662;2024-03-02T07:56:44;45.70;;;22.20;;
64932;SDS011;51446;53.850;10.662;2024-03-02T07:59:10;44.17;;;22.00;;
64932;SDS011;51446;53.850;10.662;2024-03-02T08:01:35;44.20;;;19.90;;
64932;SDS011;51446;53.850;10.662;2024-03-02T08:04:01;39.72;;;19.45;;
64932;SDS011;51446;53.850;10.662;2024-03-02T08:06:28;44.00;;;20.23;;
64932;SDS011;51446;53.850;10.662;2024-03-02T08:08:55;42.50;;;20.35;;
64932;SDS011;51446;53.850;10.662;2024-03-02T08:11:21;36.50;;;18.75;;
64932;SDS011;51446;53.850;10.662;2024-03-02T08:13:46;36.33;;;19.30;;
64932;SDS011;51446;53.850;10.662;2024-03-02T08:16:12;37.08;;;19.10;;
64932;SDS011;51446;53.850;10.662;2024-03-02T08:18:37;38.83;;;20.60;;
64932;SDS011;51446;53.850;10.662;2024-03-02T08:21:03;38.20;;;19.17;;
64932;SDS011;51446;53.850;10.662;2024-03-02T08:23:28;39.88;;;20.90;;
64932;SDS011;51446;53.850;10.662;2024-03-02T08:25:54;43.80;;;20.20;;
64932;SDS011;51446;53.850;10.662;2024-03-02T08:28:19;37.63;;;19.30;;
64932;SDS011;51446;53.850;10.662;2024-03-02T08:30:45;37.83;;;19.17;;
64932;SDS011;51446;53.850;10.662;2024-03-02T08:33:10;38.17;;;18.80;;
64932;SDS011;51446;53.850;10.662;2024-03-02T08:35:35;37.85;;;19.33;;
64932;SDS011;51446;53.850;10.662;2024-03-02T08:38:02;39.00;;;20.05;;
64932;SDS011;51446;53.850;10.662;2024-03-02T08:40:28;39.85;;;19.88;;
64932;SDS011;51446;53.850;10.662;2024-03-02T08:42:53;39.43;;;19.43;;
64932;SDS011;51446;53.850;10.662;2024-03-02T08:45:18;38.57;;;19.80;;
64932;SDS011;51446;53.850;10.662;2024-03-02T08:47:45;41.08;;;20.73;;
64932;SDS011;51446;53.850;10.662;2024-03-02T08:50:11;40.88;;;20.20;;
64932;SDS011;51446;53.850;10.662;2024-03-02T08:52:36;44.77;;;20.30;;
64932;SDS011;51446;53.850;10.662;2024-03-02T08:55:01;43.83;;;21.13;;
64932;SDS011;51446;53.850;10.662;2024-03-02T08:57:27;40.17;;;20.67;;
64932;SDS011;51446;53.850;10.662;2024-03-02T08:59:52;42.37;;;21.67;;
64932;SDS011;51446;53.850;10.662;2024-03-02T09:02:18;45.23;;;21.20;;
64932;SDS011;51446;53.850;10.662;2024-03-02T09:04:43;38.30;;;19.73;;
64932;SDS011;51446;53.850;10.662;2024-03-02T09:07:08;39.35;;;19.58;;
64932;SDS011;51446;53.850;10.662;2024-03-02T09:09:33;45.13;;;21.00;;
64932;SDS011;51446;53.850;10.662;2024-03-02T09:11:59;41.17;;;20.97;;
64932;SDS011;51446;53.850;10.662;2024-03-02T09:14:24;42.23;;;20.07;;
64932;SDS011;51446;53.850;10.662;2024-03-02T09:16:49;39.87;;;20.03;;
64932;SDS011;51446;53.850;10.662;2024-03-02T09:19:15;41.07;;;19.90;;
64932;SDS011;51446;53.850;10.662;2024-03-02T09:21:41;43.05;;;20.77;;
64932;SDS011;51446;53.850;10.662;2024-03-02T09:24:07;40.37;;;20.47;;
64932;SDS011;51446;53.850;10.662;2024-03-02T09:26:32;41.33;;;19.90;;
64932;SDS011;51446;53.850;10.662;2024-03-02T09:28:57;36.38;;;18.65;;
64932;SDS011;51446;53.850;10.662;2024-03-02T09:31:23;34.67;;;18.98;;
64932;SDS011;51446;53.850;10.662;2024-03-02T09:33:48;33.20;;;17.67;;
64932;SDS011;51446;53.850;10.662;2024-03-02T09:36:17;36.33;;;18.37;;
64932;SDS011;51446;53.850;10.662;2024-03-02T09:38:47;33.67;;;17.60;;
64932;SDS011;51446;53.850;10.662;2024-03-02T09:41:12;36.67;;;18.15;;
64932;SDS011;51446;53.850;10.662;2024-03-02T09:43:38;35.53;;;17.30;;
64932;SDS011;51446;53.850;10.662;2024-03-02T09:46:04;30.83;;;17.50;;
64932;SDS011;51446;53.850;10.662;2024-03-02T09:48:30;33.47;;;16.97;;
64932;SDS011;51446;53.850;10.662;2024-03-02T09:50:55;28.63;;;16.27;;
64932;SDS011;51446;53.850;10.662;2024-03-02T09:53:21;28.43;;;16.20;;
64932;SDS011;51446;53.850;10.662;2024-03-02T09:55:48;28.65;;;16.33;;
64932;SDS011;51446;53.850;10.662;2024-03-02T09:58:13;29.40;;;16.20;;
64932;SDS011;51446;53.850;10.662;2024-03-02T10:00:38;28.53;;;16.27;;
64932;SDS011;51446;53.850;10.662;2024-03-02T10:03:04;28.83;;;15.83;;
64932;SDS011;51446;53.850;10.662;2024-03-02T10:05:30;27.42;;;16.35;;
64932;SDS011;51446;53.850;10.662;2024-03-02T10:07:58;29.00;;;15.93;;
64932;SDS011;51446;53.850;10.662;2024-03-02T10:10:26;26.80;;;15.68;;
64932;SDS011;51446;53.850;10.662;2024-03-02T10:13:04;28.80;;;15.68;;
64932;SDS011;51446;53.850;10.662;2024-03-02T10:15:30;29.00;;;15.80;;
64932;SDS011;51446;53.850;10.662;2024-03-02T10:17:55;27.48;;;15.50;;
64932;SDS011;51446;53.850;10.662;2024-03-02T10:20:21;28.33;;;16.07;;
64932;SDS011;51446;53.850;10.662;2024-03-02T10:22:48;27.77;;;16.30;;
64932;SDS011;51446;53.850;10.662;2024-03-02T10:25:32;30.53;;;15.43;;
64932;SDS011;51446;53.850;10.662;2024-03-02T10:27:58;29.17;;;16.38;;
64932;SDS011;51446;53.850;10.662;2024-03-02T10:30:25;27.17;;;15.95;;
64932;SDS011;51446;53.850;10.662;2024-03-02T10:32:53;28.90;;;15.85;;
64932;SDS011;51446;53.850;10.662;2024-03-02T10:35:20;27.73;;;16.08;;
64932;SDS011;51446;53.850;10.662;2024-03-02T10:37:47;30.07;;;16.10;;
64932;SDS011;51446;53.850;10.662;2024-03-02T10:40:13;30.38;;;16.35;;
64932;SDS011;51446;53.850;10.662;2024-03-02T10:42:39;28.40;;;15.30;;
64932;SDS011;51446;53.850;10.662;2024-03-02T10:45:06;25.08;;;15.10;;
64932;SDS011;51446;53.850;10.662;2024-03-02T10:47:35;27.40;;;15.88;;
64932;SDS011;51446;53.850;10.662;2024-03-02T10:50:02;29.53;;;14.60;;
64932;SDS011;51446;53.850;10.662;2024-03-02T10:52:33;27.90;;;15.77;;
64932;SDS011;51446;53.850;10.662;2024-03-02T10:55:01;27.45;;;15.23;;
64932;SDS011;51446;53.850;10.662;2024-03-02T10:57:31;26.42;;;14.60;;
64932;SDS011;51446;53.850;10.662;2024-03-02T11:00:03;24.63;;;14.60;;
64932;SDS011;51446;53.850;10.662;2024-03-02T11:02:30;26.33;;;14.33;;
64932;SDS011;51446;53.850;10.662;2024-03-02T11:04:57;22.92;;;13.55;;
64932;SDS011;51446;53.850;10.662;2024-03-02T11:07:27;25.63;;;13.85;;
64932;SDS011;51446;53.850;10.662;2024-03-02T11:09:54;25.42;;;13.77;;
64932;SDS011;51446;53.850;10.662;2024-03-02T11:14:59;22.73;;;13.20;;
64932;SDS011;51446;53.850;10.662;2024-03-02T11:17:25;23.77;;;12.90;;
64932;SDS011;51446;53.850;10.662;2024-03-02T11:19:51;23.47;;;13.07;;
64932;SDS011;51446;53.850;10.662;2024-03-02T11:22:17;21.83;;;11.25;;
64932;SDS011;51446;53.850;10.662;2024-03-02T11:24:50;21.02;;;11.80;;
64932;SDS011;51446;53.850;10.662;2024-03-02T11:27:59;20.30;;;11.82;;
64932;SDS011;51446;53.850;10.662;2024-03-02T11:32:57;21.13;;;11.93;;
64932;SDS011;51446;53.850;10.662;2024-03-02T11:35:33;23.17;;;11.82;;
64932;SDS011;51446;53.850;10.662;2024-03-02T11:38:02;21.98;;;12.32;;
64932;SDS011;51446;53.850;10.662;2024-03-02T11:40:28;21.75;;;11.93;;
64932;SDS011;51446;53.850;10.662;2024-03-02T11:42:54;18.47;;;11.70;;
64932;SDS011;51446;53.850;10.662;2024-03-02T11:45:23;21.35;;;12.48;;
64932;SDS011;51446;53.850;10.662;2024-03-02T11:47:55;19.92;;;11.90;;
64932;SDS011;51446;53.850;10.662;2024-03-02T11:50:35;21.65;;;12.20;;
64932;SDS011;51446;53.850;10.662;2024-03-02T11:53:05;19.58;;;11.60;;
64932;SDS011;51446;53.850;10.662;2024-03-02T11:55:33;20.43;;;11.13;;
64932;SDS011;51446;53.850;10.662;2024-03-02T11:58:01;20.55;;;10.90;;
64932;SDS011;51446;53.850;10.662;2024-03-02T12:00:27;17.73;;;11.13;;
64932;SDS011;51446;53.850;10.662;2024-03-02T12:03:05;17.70;;;11.20;;
64932;SDS011;51446;53.850;10.662;2024-03-02T12:05:31;26.77;;;18.27;;
64932;SDS011;51446;53.850;10.662;2024-03-02T12:07:57;61.97;;;31.30;;
64932;SDS011;51446;53.850;10.662;2024-03-02T12:10:24;20.75;;;12.45;;
64932;SDS011;51446;53.850;10.662;2024-03-02T12:12:59;45.25;;;31.20;;
64932;SDS011;51446;53.850;10.662;2024-03-02T12:15:26;36.35;;;22.75;;
64932;SDS011;51446;53.850;10.662;2024-03-02T12:17:53;17.00;;;10.27;;
64932;SDS011;51446;53.850;10.662;2024-03-02T12:20:22;15.45;;;9.55;;
64932;SDS011;51446;53.850;10.662;2024-03-02T12:22:52;18.77;;;10.68;;
64932;SDS011;51446;53.850;10.662;2024-03-02T12:25:21;16.38;;;10.07;;
64932;SDS011;51446;53.850;10.662;2024-03-02T12:27:49;16.67;;;10.13;;
64932;SDS011;51446;53.850;10.662;2024-03-02T12:30:16;16.27;;;9.52;;
64932;SDS011;51446;53.850;10.662;2024-03-02T12:32:42;17.92;;;12.38;;
64932;SDS011;51446;53.850;10.662;2024-03-02T12:35:09;49.63;;;35.13;;
64932;SDS011;51446;53.850;10.662;2024-03-02T12:37:46;34.47;;;21.83;;
64932;SDS011;51446;53.850;10.662;2024-03-02T12:40:12;41.80;;;31.70;;
64932;SDS011;51446;53.850;10.662;2024-03-02T12:42:38;13.05;;;8.50;;
64932;SDS011;51446;53.850;10.662;2024-03-02T12:45:09;14.05;;;7.72;;
64932;SDS011;51446;53.850;10.662;2024-03-02T12:47:35;12.97;;;7.67;;
64932;SDS011;51446;53.850;10.662;2024-03-02T12:50:00;19.52;;;14.93;;
64932;SDS011;51446;53.850;10.662;2024-03-02T12:52:26;20.70;;;13.20;;
64932;SDS011;51446;53.850;10.662;2024-03-02T12:54:52;12.35;;;7.55;;
64932;SDS011;51446;53.850;10.662;2024-03-02T12:57:22;11.00;;;7.22;;
64932;SDS011;51446;53.850;10.662;2024-03-02T12:59:50;10.30;;;6.50;;
64932;SDS011;51446;53.850;10.662;2024-03-02T13:02:19;9.47;;;6.60;;
64932;SDS011;51446;53.850;10.662;2024-03-02T13:04:44;15.25;;;8.73;;
64932;SDS011;51446;53.850;10.662;2024-03-02T13:07:18;14.10;;;7.50;;
64932;SDS011;51446;53.850;10.662;2024-03-02T13:09:44;9.47;;;6.43;;
64932;SDS011;51446;53.850;10.662;2024-03-02T13:12:11;11.23;;;6.60;;
64932;SDS011;51446;53.850;10.662;2024-03-02T13:14:36;12.00;;;7.00;;
64932;SDS011;51446;53.850;10.662;2024-03-02T13:17:01;12.50;;;6.73;;
64932;SDS011;51446;53.850;10.662;2024-03-02T13:19:29;9.65;;;6.38;;
64932;SDS011;51446;53.850;10.662;2024-03-02T13:21:55;14.10;;;8.25;;
64932;SDS011;51446;53.850;10.662;2024-03-02T13:24:22;12.50;;;6.82;;
64932;SDS011;51446;53.850;10.662;2024-03-02T13:26:50;11.73;;;7.53;;
64932;SDS011;51446;53.850;10.662;2024-03-02T13:29:20;12.60;;;7.00;;
64932;SDS011;51446;53.850;10.662;2024-03-02T13:31:46;11.32;;;6.53;;
64932;SDS011;51446;53.850;10.662;2024-03-02T13:34:11;11.83;;;6.70;;
64932;SDS011;51446;53.850;10.662;2024-03-02T13:36:37;13.90;;;8.60;;
64932;SDS011;51446;53.850;10.662;2024-03-02T13:39:03;14.93;;;9.52;;
64932;SDS011;51446;53.850;10.662;2024-03-02T13:41:30;25.10;;;14.52;;
64932;SDS011;51446;53.850;10.662;2024-03-02T13:43:55;18.27;;;10.43;;
64932;SDS011;51446;53.850;10.662;2024-03-02T13:46:21;11.13;;;6.70;;
64932;SDS011;51446;53.850;10.662;2024-03-02T13:48:47;10.25;;;6.20;;
64932;SDS011;51446;53.850;10.662;2024-03-02T13:51:12;11.53;;;7.13;;
64932;SDS011;51446;53.850;10.662;2024-03-02T13:53:37;24.77;;;14.60;;
64932;SDS011;51446;53.850;10.662;2024-03-02T13:56:02;15.73;;;8.37;;
64932;SDS011;51446;53.850;10.662;2024-03-02T13:58:28;25.67;;;14.87;;
64932;SDS011;51446;53.850;10.662;2024-03-02T14:00:53;13.20;;;8.27;;
64932;SDS011;51446;53.850;10.662;2024-03-02T14:03:18;12.02;;;7.07;;
64932;SDS011;51446;53.850;10.662;2024-03-02T14:05:44;21.83;;;13.47;;
64932;SDS011;51446;53.850;10.662;2024-03-02T14:08:11;29.40;;;16.33;;
64932;SDS011;51446;53.850;10.662;2024-03-02T14:10:36;16.13;;;9.53;;
64932;SDS011;51446;53.850;10.662;2024-03-02T14:13:01;20.27;;;11.77;;
64932;SDS011;51446;53.850;10.662;2024-03-02T14:15:27;19.17;;;10.87;;